createdAt,value
2017-09-22T00:00:28.986Z,12.30
2017-09-22T00:02:56.451Z,12.20
2017-09-22T00:05:23.927Z,12.20
2017-09-22T00:07:51.397Z,12.20
2017-09-22T00:10:18.866Z,12.20
2017-09-22T00:12:46.351Z,12.20
2017-09-22T00:15:14.574Z,12.10
2017-09-22T00:17:42.052Z,12.10
2017-09-22T00:20:10.336Z,12.10
2017-09-22T00:22:37.791Z,12.10
2017-09-22T00:25:06.759Z,12.00
2017-09-22T00:27:34.244Z,12.00
2017-09-22T00:30:01.797Z,12.00
2017-09-22T00:32:29.347Z,12.00
2017-09-22T00:34:56.824Z,12.00
2017-09-22T00:37:25.073Z,11.90
2017-09-22T00:39:52.557Z,11.90
2017-09-22T00:42:20.924Z,11.90
2017-09-22T00:44:49.183Z,11.90
2017-09-22T00:47:16.761Z,11.90
2017-09-22T00:49:44.244Z,11.90
2017-09-22T00:52:11.713Z,11.80
2017-09-22T00:54:39.175Z,11.80
2017-09-22T00:57:06.652Z,11.80
2017-09-22T00:59:34.122Z,11.80
2017-09-22T01:02:01.591Z,11.70
2017-09-22T01:04:29.072Z,11.70
2017-09-22T01:06:57.332Z,11.70
2017-09-22T01:09:25.640Z,11.70
2017-09-22T01:11:53.983Z,11.70
2017-09-22T01:14:22.961Z,11.60
2017-09-22T01:16:50.435Z,11.70
2017-09-22T01:19:17.912Z,11.70
2017-09-22T01:21:46.165Z,11.60
2017-09-22T01:24:14.406Z,11.60
2017-09-22T01:26:41.891Z,11.60
2017-09-22T01:29:09.461Z,11.60
2017-09-22T01:31:36.930Z,11.60
2017-09-22T01:34:05.200Z,11.60
2017-09-22T01:36:33.455Z,11.60
2017-09-22T01:39:00.936Z,11.60
2017-09-22T01:41:29.186Z,11.60
2017-09-22T01:43:56.650Z,11.50
2017-09-22T01:46:24.119Z,11.60
2017-09-22T01:48:51.676Z,11.60
2017-09-22T01:51:19.911Z,11.60
2017-09-22T01:53:47.376Z,11.60
2017-09-22T01:56:14.957Z,11.60
2017-09-22T01:58:42.514Z,11.60
2017-09-22T02:01:09.980Z,11.60
2017-09-22T02:03:38.238Z,11.60
2017-09-22T02:06:06.383Z,11.50
2017-09-22T02:08:33.855Z,11.50
2017-09-22T02:11:01.444Z,11.50
2017-09-22T02:13:29.023Z,11.50
2017-09-22T02:15:56.556Z,11.50
2017-09-22T02:18:24.034Z,11.40
2017-09-22T02:20:51.575Z,11.50
2017-09-22T02:23:19.848Z,11.40
2017-09-22T02:25:47.411Z,11.40
2017-09-22T02:28:15.681Z,11.40
2017-09-22T02:30:43.155Z,11.40
2017-09-22T02:33:11.400Z,11.40
2017-09-22T02:35:38.871Z,11.40
2017-09-22T02:38:06.346Z,11.50
2017-09-22T02:40:34.583Z,11.40
2017-09-22T02:43:02.064Z,11.40
2017-09-22T02:45:30.314Z,11.40
2017-09-22T02:47:57.900Z,11.40
2017-09-22T02:50:25.375Z,11.40
2017-09-22T02:52:53.620Z,11.40
2017-09-22T02:55:21.095Z,11.40
2017-09-22T02:57:49.335Z,11.40
2017-09-22T03:00:16.820Z,11.40
2017-09-22T03:02:45.059Z,11.40
2017-09-22T03:05:12.553Z,11.30
2017-09-22T03:07:40.831Z,11.40
2017-09-22T03:10:09.059Z,11.40
2017-09-22T03:12:36.545Z,11.40
2017-09-22T03:15:04.020Z,11.30
2017-09-22T03:17:32.284Z,11.40
2017-09-22T03:19:59.752Z,11.30
2017-09-22T03:22:28.011Z,11.30
2017-09-22T03:24:56.264Z,11.40
2017-09-22T03:27:24.261Z,11.30
2017-09-22T03:29:51.817Z,11.40
2017-09-22T03:32:19.310Z,11.40
2017-09-22T03:34:46.872Z,11.40
2017-09-22T03:37:14.350Z,11.40
2017-09-22T03:39:41.828Z,11.40
2017-09-22T03:42:09.320Z,11.40
2017-09-22T03:44:37.567Z,11.40
2017-09-22T03:47:05.031Z,11.30
2017-09-22T03:49:32.503Z,11.40
2017-09-22T03:52:00.773Z,11.40
2017-09-22T03:54:28.247Z,11.40
2017-09-22T03:56:56.488Z,11.30
2017-09-22T03:59:23.964Z,11.20
2017-09-22T04:01:52.195Z,11.20
2017-09-22T04:04:19.670Z,11.20
2017-09-22T04:06:47.155Z,11.20
2017-09-22T04:09:16.392Z,11.20
2017-09-22T04:11:43.866Z,11.10
2017-09-22T04:14:11.344Z,11.10
2017-09-22T04:16:38.816Z,11.10
2017-09-22T04:19:06.287Z,11.10
2017-09-22T04:21:34.530Z,11.00
2017-09-22T04:24:02.007Z,11.00
2017-09-22T04:26:29.481Z,11.00
2017-09-22T04:28:58.460Z,10.90
2017-09-22T04:31:26.699Z,10.90
2017-09-22T04:33:54.191Z,10.90
2017-09-22T04:36:22.535Z,10.90
2017-09-22T04:38:50.023Z,10.80
2017-09-22T04:41:17.580Z,10.90
2017-09-22T04:43:45.061Z,11.00
2017-09-22T04:46:14.077Z,10.90
2017-09-22T04:48:42.689Z,10.90
2017-09-22T04:51:10.164Z,10.90
2017-09-22T04:53:37.734Z,10.90
2017-09-22T04:56:06.619Z,10.90
2017-09-22T04:58:34.103Z,10.90
2017-09-22T05:01:01.597Z,10.90
2017-09-22T05:03:29.173Z,11.00
2017-09-22T05:05:56.703Z,11.00
2017-09-22T05:08:24.407Z,11.10
2017-09-22T05:10:51.873Z,11.20
2017-09-22T05:13:19.355Z,11.20
2017-09-22T05:15:47.631Z,11.30
2017-09-22T05:18:15.121Z,11.30
2017-09-22T05:20:42.611Z,11.40
2017-09-22T05:23:10.653Z,11.40
2017-09-22T05:25:38.148Z,11.50
2017-09-22T05:28:06.414Z,11.60
2017-09-22T05:30:34.657Z,11.60
2017-09-22T05:33:02.146Z,11.60
2017-09-22T05:35:30.420Z,11.70
2017-09-22T05:37:58.711Z,11.70
2017-09-22T05:40:26.979Z,11.70
2017-09-22T05:42:54.548Z,11.70
2017-09-22T05:45:22.816Z,11.80
2017-09-22T05:47:50.292Z,11.80
2017-09-22T05:50:18.565Z,11.80
2017-09-22T05:52:46.791Z,11.90
2017-09-22T05:55:14.293Z,11.80
2017-09-22T05:57:42.536Z,11.90
2017-09-22T06:00:10.017Z,11.90
2017-09-22T06:02:38.297Z,12.10
2017-09-22T06:05:06.561Z,12.10
2017-09-22T06:07:34.044Z,12.10
2017-09-22T06:10:01.541Z,12.20
2017-09-22T06:12:29.349Z,12.30
2017-09-22T06:14:57.599Z,12.40
2017-09-22T06:17:25.076Z,12.40
2017-09-22T06:19:52.570Z,12.50
2017-09-22T06:22:20.040Z,12.60
2017-09-22T06:24:47.508Z,12.60
2017-09-22T06:27:15.930Z,12.70
2017-09-22T06:29:44.188Z,12.90
2017-09-22T06:32:11.655Z,12.90
2017-09-22T06:34:39.943Z,13.10
2017-09-22T06:37:08.227Z,13.10
2017-09-22T06:39:35.716Z,13.10
2017-09-22T06:42:03.333Z,13.10
2017-09-22T06:44:31.615Z,13.30
2017-09-22T06:46:59.880Z,13.40
2017-09-22T06:49:27.427Z,13.30
2017-09-22T06:51:55.652Z,13.40
2017-09-22T06:54:23.172Z,13.50
2017-09-22T06:56:50.655Z,13.50
2017-09-22T06:59:18.121Z,13.60
2017-09-22T07:01:45.635Z,13.70
2017-09-22T07:04:13.959Z,13.80
2017-09-22T07:06:41.467Z,13.70
2017-09-22T07:09:09.564Z,13.80
2017-09-22T07:11:37.817Z,13.90
2017-09-22T07:14:05.296Z,13.90
2017-09-22T07:16:33.538Z,14.00
2017-09-22T07:19:01.020Z,13.90
2017-09-22T07:21:28.503Z,14.00
2017-09-22T07:23:55.978Z,14.10
2017-09-22T07:26:23.476Z,14.20
2017-09-22T07:28:50.957Z,14.10
2017-09-22T07:31:19.208Z,14.20
2017-09-22T07:33:46.692Z,14.20
2017-09-22T07:36:14.177Z,14.30
2017-09-22T07:38:41.691Z,14.50
2017-09-22T07:41:09.964Z,14.70
2017-09-22T07:43:38.225Z,14.80
2017-09-22T07:46:08.479Z,14.80
2017-09-22T07:48:36.016Z,15.00
2017-09-22T07:51:03.484Z,15.10
2017-09-22T07:53:31.739Z,15.30
2017-09-22T07:55:59.229Z,15.30
2017-09-22T07:58:26.717Z,15.40
2017-09-22T08:00:54.275Z,15.60
2017-09-22T08:03:21.760Z,15.80
2017-09-22T08:05:49.248Z,15.90
2017-09-22T08:08:17.524Z,16.00
2017-09-22T08:10:46.359Z,16.10
2017-09-22T08:13:14.035Z,16.00
2017-09-22T08:15:41.624Z,16.10
2017-09-22T08:18:09.902Z,16.30
2017-09-22T08:20:38.332Z,16.40
2017-09-22T08:23:06.835Z,16.40
2017-09-22T08:25:34.520Z,16.50
2017-09-22T08:28:02.033Z,16.60
2017-09-22T08:30:29.816Z,16.50
2017-09-22T08:32:58.565Z,16.50
2017-09-22T08:35:27.077Z,16.40
2017-09-22T08:37:54.673Z,16.40
2017-09-22T08:40:23.928Z,16.30
2017-09-22T08:42:51.499Z,16.30
2017-09-22T08:45:19.020Z,16.40
2017-09-22T08:47:46.518Z,16.40
2017-09-22T08:50:14.051Z,16.50
2017-09-22T08:52:41.536Z,16.50
2017-09-22T08:55:09.887Z,16.60
2017-09-22T08:57:37.368Z,16.70
2017-09-22T09:00:05.173Z,16.80
2017-09-22T09:02:33.440Z,17.00
2017-09-22T09:05:01.717Z,17.00
2017-09-22T09:07:29.979Z,17.00
2017-09-22T09:09:58.240Z,17.10
2017-09-22T09:12:26.592Z,17.00
2017-09-22T09:14:54.067Z,17.20
2017-09-22T09:17:21.790Z,17.20
2017-09-22T09:19:49.310Z,17.20
2017-09-22T09:22:16.796Z,17.30
2017-09-22T09:24:45.104Z,17.50
2017-09-22T09:27:12.588Z,17.60
2017-09-22T09:29:40.069Z,17.80
2017-09-22T09:32:08.334Z,17.90
2017-09-22T09:34:36.733Z,17.90
2017-09-22T09:37:05.011Z,17.80
2017-09-22T09:39:32.963Z,17.80
2017-09-22T09:42:01.246Z,17.90
2017-09-22T09:44:29.511Z,18.00
2017-09-22T09:46:58.109Z,18.00
2017-09-22T09:49:26.350Z,18.00
2017-09-22T09:51:53.816Z,18.00
2017-09-22T09:54:21.322Z,18.00
2017-09-22T09:56:48.813Z,17.90
2017-09-22T09:59:16.309Z,17.80
2017-09-22T10:01:46.389Z,17.80
2017-09-22T10:04:13.882Z,17.80
2017-09-22T10:06:42.127Z,18.00
2017-09-22T10:09:10.527Z,18.00
2017-09-22T10:11:38.800Z,18.00
2017-09-22T10:14:06.280Z,18.00
2017-09-22T10:16:33.777Z,17.90
2017-09-22T10:19:01.349Z,18.00
2017-09-22T10:21:28.848Z,18.00
2017-09-22T10:23:57.249Z,18.00
2017-09-22T10:26:24.755Z,18.00
2017-09-22T10:28:52.235Z,18.00
2017-09-22T10:31:20.604Z,17.60
2017-09-22T10:33:48.856Z,17.60
2017-09-22T10:36:16.318Z,17.50
2017-09-22T10:38:43.901Z,17.40
2017-09-22T10:41:12.148Z,17.30
2017-09-22T10:43:39.628Z,17.30
2017-09-22T10:46:07.398Z,17.30
2017-09-22T10:48:35.645Z,17.30
2017-09-22T10:51:04.661Z,17.20
2017-09-22T10:53:33.247Z,17.30
2017-09-22T10:56:01.516Z,17.30
2017-09-22T10:58:29.764Z,17.30
2017-09-22T11:00:57.266Z,17.30
2017-09-22T11:03:25.519Z,17.60
2017-09-22T11:05:52.990Z,17.60
2017-09-22T11:08:21.236Z,17.90
2017-09-22T11:10:48.712Z,17.90
2017-09-22T11:13:16.984Z,18.30
2017-09-22T11:15:45.135Z,18.30
2017-09-22T11:18:12.715Z,18.40
2017-09-22T11:20:40.367Z,18.50
2017-09-22T11:23:07.845Z,18.50
2017-09-22T11:25:36.104Z,19.00
2017-09-22T11:28:03.679Z,19.00
2017-09-22T11:30:31.923Z,19.20
2017-09-22T11:32:59.395Z,19.20
2017-09-22T11:35:27.107Z,19.50
2017-09-22T11:37:54.595Z,19.80
2017-09-22T11:40:22.189Z,20.00
2017-09-22T11:42:50.463Z,20.30
2017-09-22T11:45:18.724Z,20.40
2017-09-22T11:47:46.195Z,20.40
2017-09-22T11:50:14.472Z,20.50
2017-09-22T11:52:42.839Z,20.50
2017-09-22T11:55:10.322Z,20.50
2017-09-22T11:57:37.808Z,20.50
2017-09-22T12:00:05.292Z,20.40
2017-09-22T12:02:32.765Z,20.40
2017-09-22T12:05:00.232Z,20.20
2017-09-22T12:07:29.085Z,19.90
2017-09-22T12:09:56.559Z,19.90
2017-09-22T12:12:24.029Z,19.80
2017-09-22T12:14:51.592Z,19.60
2017-09-22T12:17:19.832Z,19.10
2017-09-22T12:19:47.304Z,19.10
2017-09-22T12:22:14.775Z,18.70
2017-09-22T12:24:42.263Z,18.40
2017-09-22T12:27:10.496Z,18.10
2017-09-22T12:29:38.010Z,18.10
2017-09-22T12:32:06.272Z,17.90
2017-09-22T12:34:33.746Z,17.90
2017-09-22T12:37:01.221Z,18.10
2017-09-22T12:39:29.303Z,18.20
2017-09-22T12:41:57.689Z,18.40
2017-09-22T12:44:26.672Z,18.70
2017-09-22T12:46:54.144Z,18.70
2017-09-22T12:49:21.720Z,18.90
2017-09-22T12:51:49.954Z,19.80
2017-09-22T12:54:17.424Z,19.80
2017-09-22T12:56:45.442Z,20.50
2017-09-22T12:59:12.972Z,20.90
2017-09-22T13:01:41.222Z,21.00
2017-09-22T13:04:09.311Z,21.00
2017-09-22T13:06:36.796Z,21.00
2017-09-22T13:09:04.285Z,21.10
2017-09-22T13:11:31.787Z,21.10
2017-09-22T13:14:00.031Z,20.50
2017-09-22T13:16:27.505Z,20.50
2017-09-22T13:18:54.978Z,20.60
2017-09-22T13:21:23.221Z,21.00
2017-09-22T13:23:50.720Z,20.90
2017-09-22T13:26:18.976Z,21.00
2017-09-22T13:28:46.545Z,21.00
2017-09-22T13:31:14.019Z,20.80
2017-09-22T13:33:42.475Z,20.70
2017-09-22T13:36:09.969Z,20.70
2017-09-22T13:38:37.504Z,20.70
2017-09-22T13:41:06.692Z,20.40
2017-09-22T13:43:35.071Z,20.00
2017-09-22T13:46:02.537Z,20.00
2017-09-22T13:48:31.443Z,19.90
2017-09-22T13:50:59.512Z,19.80
2017-09-22T13:53:26.993Z,19.80
2017-09-22T13:55:54.477Z,19.90
2017-09-22T13:58:21.940Z,20.00
2017-09-22T14:00:49.420Z,20.00
2017-09-22T14:03:17.703Z,20.00
2017-09-22T14:05:45.943Z,20.00
2017-09-22T14:08:13.422Z,20.00
2017-09-22T14:10:41.671Z,20.30
2017-09-22T14:13:09.133Z,20.30
2017-09-22T14:15:36.622Z,20.30
2017-09-22T14:18:04.180Z,20.30
2017-09-22T14:20:31.684Z,20.10
2017-09-22T14:22:59.188Z,20.10
2017-09-22T14:25:27.449Z,20.20
2017-09-22T14:27:55.078Z,20.20
2017-09-22T14:30:22.548Z,20.30
2017-09-22T14:32:50.036Z,20.40
2017-09-22T14:35:18.263Z,20.30
2017-09-22T14:37:45.727Z,20.30
2017-09-22T14:40:13.586Z,20.20
2017-09-22T14:42:41.096Z,20.10
2017-09-22T14:45:09.422Z,20.00
2017-09-22T14:47:37.231Z,20.00
2017-09-22T14:50:04.770Z,20.00
2017-09-22T14:52:32.227Z,20.10
2017-09-22T14:54:59.700Z,20.10
2017-09-22T14:57:27.170Z,20.10
2017-09-22T14:59:55.480Z,20.20
2017-09-22T15:02:22.952Z,20.20
2017-09-22T15:04:52.275Z,20.30
2017-09-22T15:07:19.983Z,20.20
2017-09-22T15:09:50.472Z,20.30
2017-09-22T15:12:18.472Z,20.40
2017-09-22T15:14:46.935Z,20.40
2017-09-22T15:17:14.848Z,20.40
2017-09-22T15:19:43.333Z,20.10
2017-09-22T15:22:11.867Z,20.00
2017-09-22T15:24:39.350Z,19.80
2017-09-22T15:27:07.969Z,19.50
2017-09-22T15:29:42.298Z,19.50
2017-09-22T15:32:10.175Z,19.40
2017-09-22T15:34:37.956Z,19.30
2017-09-22T15:37:06.355Z,19.30
2017-09-22T15:39:34.986Z,19.40
2017-09-22T15:42:02.560Z,19.40
2017-09-22T15:44:30.184Z,19.50
2017-09-22T15:46:57.979Z,19.50
2017-09-22T15:54:02.121Z,19.10
2017-09-22T15:56:30.286Z,19.10
2017-09-22T15:58:57.747Z,18.90
2017-09-22T16:01:26.647Z,18.70
2017-09-22T16:03:55.090Z,18.90
2017-09-22T16:06:22.742Z,18.90
2017-09-22T16:08:51.763Z,18.90
2017-09-22T16:11:22.012Z,18.90
2017-09-22T16:13:50.451Z,18.90
2017-09-22T16:16:17.932Z,18.90
2017-09-22T16:18:46.151Z,19.00
2017-09-22T16:21:13.659Z,18.90
2017-09-22T16:23:41.172Z,18.70
2017-09-22T16:26:11.949Z,18.40
2017-09-22T16:28:41.155Z,18.40
2017-09-22T16:31:08.977Z,18.40
2017-09-22T16:33:36.475Z,18.30
2017-09-22T16:36:04.362Z,18.20
2017-09-22T16:38:32.639Z,18.00
2017-09-22T16:41:00.818Z,18.00
2017-09-22T16:43:28.315Z,17.90
2017-09-22T16:45:57.027Z,17.70
2017-09-22T16:48:25.030Z,17.60
2017-09-22T16:50:52.623Z,17.60
2017-09-22T16:53:20.143Z,17.40
2017-09-22T16:55:47.673Z,17.30
2017-09-22T16:58:15.148Z,17.20
2017-09-22T17:00:42.613Z,17.20
2017-09-22T17:03:10.952Z,17.00
2017-09-22T17:05:38.605Z,17.00
2017-09-22T17:08:06.879Z,16.90
2017-09-22T17:10:34.351Z,16.80
2017-09-22T17:13:01.821Z,16.70
2017-09-22T17:15:30.125Z,16.60
2017-09-22T17:17:58.377Z,16.50
2017-09-22T17:20:25.939Z,16.50
2017-09-22T17:22:53.418Z,16.50
2017-09-22T17:25:21.984Z,16.30
2017-09-22T17:27:49.574Z,16.30
2017-09-22T17:30:17.041Z,16.20
2017-09-22T17:32:45.277Z,16.20
2017-09-22T17:35:12.758Z,16.10
2017-09-22T17:37:40.430Z,15.90
2017-09-22T17:40:07.914Z,15.90
2017-09-22T17:42:35.361Z,15.80
2017-09-22T17:45:02.819Z,15.70
2017-09-22T17:47:30.327Z,15.60
2017-09-22T17:49:58.593Z,15.40
2017-09-22T17:52:26.840Z,15.30
2017-09-22T17:54:54.319Z,15.30
2017-09-22T17:57:21.796Z,15.20
2017-09-22T17:59:50.375Z,15.10
2017-09-22T18:02:17.860Z,15.10
2017-09-22T18:04:46.185Z,15.00
2017-09-22T18:07:13.672Z,15.00
2017-09-22T18:09:45.998Z,15.00
2017-09-22T18:12:14.376Z,14.80
2017-09-22T18:14:41.909Z,14.80
2017-09-22T18:17:09.744Z,14.80
2017-09-22T18:19:38.009Z,14.70
2017-09-22T18:22:05.581Z,14.60
2017-09-22T18:24:33.894Z,14.50
2017-09-22T18:27:01.363Z,14.50
2017-09-22T18:29:28.841Z,14.40
2017-09-22T18:31:56.315Z,14.30
2017-09-22T18:34:23.790Z,14.30
2017-09-22T18:36:52.100Z,14.20
2017-09-22T18:39:19.730Z,14.20
2017-09-22T18:41:47.982Z,14.00
2017-09-22T18:44:15.472Z,14.00
2017-09-22T18:46:42.947Z,13.90
2017-09-22T18:49:10.413Z,13.90
2017-09-22T18:51:37.882Z,13.80
2017-09-22T18:54:05.364Z,13.70
2017-09-22T18:56:32.891Z,13.70
2017-09-22T18:59:00.397Z,13.60
2017-09-22T19:01:28.667Z,13.50
2017-09-22T19:03:56.955Z,13.40
2017-09-22T19:06:25.292Z,13.40
2017-09-22T19:08:53.592Z,13.40
2017-09-22T19:11:21.864Z,13.30
2017-09-22T19:13:50.632Z,13.30
2017-09-22T19:16:18.188Z,13.30
2017-09-22T19:18:46.493Z,13.30
2017-09-22T19:21:14.747Z,13.20
2017-09-22T19:23:42.317Z,13.10
2017-09-22T19:26:09.791Z,13.10
2017-09-22T19:28:38.331Z,13.00
2017-09-22T19:31:06.282Z,13.00
2017-09-22T19:33:33.754Z,13.00
2017-09-22T19:36:01.253Z,12.90
2017-09-22T19:38:28.766Z,12.90
2017-09-22T19:40:56.253Z,12.90
2017-09-22T19:43:23.711Z,12.80
2017-09-22T19:45:51.428Z,12.80
2017-09-22T19:48:18.998Z,12.70
2017-09-22T19:50:46.629Z,12.70
2017-09-22T19:53:14.127Z,12.60
2017-09-22T19:55:41.719Z,12.60
2017-09-22T19:58:09.997Z,12.50
2017-09-22T20:00:38.909Z,12.50
2017-09-22T20:03:07.564Z,12.40
2017-09-22T20:05:35.138Z,12.40
2017-09-22T20:08:03.407Z,12.40
2017-09-22T20:10:31.672Z,12.30
2017-09-22T20:12:59.150Z,12.30
2017-09-22T20:15:27.387Z,12.20
2017-09-22T20:17:55.859Z,12.20
2017-09-22T20:20:23.941Z,12.20
2017-09-22T20:22:52.919Z,12.10
2017-09-22T20:25:21.431Z,12.00
2017-09-22T20:27:50.202Z,12.00
2017-09-22T20:30:17.676Z,12.00
2017-09-22T20:32:45.154Z,11.90
2017-09-22T20:35:13.554Z,11.90
2017-09-22T20:37:41.854Z,11.90
2017-09-22T20:40:10.154Z,11.70
2017-09-22T20:42:38.854Z,11.70
2017-09-22T20:45:07.436Z,11.60
2017-09-22T20:47:36.580Z,11.60
2017-09-22T20:50:04.176Z,11.50
2017-09-22T20:52:31.655Z,11.50
2017-09-22T20:54:59.891Z,11.50
2017-09-22T20:57:27.372Z,11.40
2017-09-22T20:59:56.485Z,11.40
2017-09-22T21:02:24.728Z,11.40
2017-09-22T21:04:52.201Z,11.30
2017-09-22T21:07:19.884Z,11.30
2017-09-22T21:09:48.237Z,11.30
2017-09-22T21:12:15.716Z,11.20
2017-09-22T21:14:43.967Z,11.20
2017-09-22T21:17:11.523Z,11.20
2017-09-22T21:19:40.511Z,11.10
2017-09-22T21:22:08.138Z,11.10
2017-09-22T21:24:35.595Z,11.10
2017-09-22T21:27:03.100Z,11.00
2017-09-22T21:29:30.618Z,11.00
2017-09-22T21:31:58.109Z,11.00
2017-09-22T21:34:26.398Z,11.00
2017-09-22T21:36:55.494Z,10.90
2017-09-22T21:39:23.731Z,10.90
2017-09-22T21:41:51.200Z,10.90
2017-09-22T21:44:18.683Z,10.80
2017-09-22T21:46:46.915Z,10.80
2017-09-22T21:49:14.408Z,10.70
2017-09-22T21:51:41.951Z,10.70
2017-09-22T21:54:09.518Z,10.70
2017-09-22T21:56:37.854Z,10.60
2017-09-22T21:59:05.458Z,10.60
2017-09-22T22:01:34.171Z,10.60
2017-09-22T22:04:07.315Z,10.50
2017-09-22T22:06:49.783Z,10.50
2017-09-22T22:09:17.370Z,10.50
2017-09-22T22:11:45.994Z,10.40
2017-09-22T22:14:14.353Z,10.30
2017-09-22T22:16:41.955Z,10.30
2017-09-22T22:19:09.689Z,10.30
2017-09-22T22:21:38.034Z,10.20
2017-09-22T22:24:06.354Z,10.20
2017-09-22T22:26:33.949Z,10.20
2017-09-22T22:29:01.507Z,10.10
2017-09-22T22:31:29.111Z,10.10
2017-09-22T22:33:56.657Z,10.10
2017-09-22T22:36:27.051Z,10.10
2017-09-22T22:38:54.638Z,10.10
2017-09-22T22:41:22.210Z,10.00
2017-09-22T22:43:49.791Z,9.90
2017-09-22T22:46:18.880Z,9.90
2017-09-22T22:48:47.223Z,9.90
2017-09-22T22:51:14.900Z,9.80
2017-09-22T22:53:42.594Z,9.90
2017-09-22T22:56:10.966Z,9.80
2017-09-22T22:58:38.574Z,9.80
2017-09-22T23:01:06.144Z,9.80
2017-09-22T23:03:33.699Z,9.70
2017-09-22T23:06:01.269Z,9.70
2017-09-22T23:08:28.830Z,9.70
2017-09-22T23:10:56.395Z,9.70
2017-09-22T23:13:23.978Z,9.70
2017-09-22T23:15:52.340Z,9.70
2017-09-22T23:18:20.671Z,9.70
2017-09-22T23:20:48.250Z,9.60
2017-09-22T23:23:15.838Z,9.60
2017-09-22T23:25:44.214Z,9.60
2017-09-22T23:28:12.598Z,9.60
2017-09-22T23:30:40.984Z,9.50
2017-09-22T23:33:09.370Z,9.50
2017-09-22T23:35:37.884Z,9.50
2017-09-22T23:38:05.482Z,9.50
2017-09-22T23:40:35.077Z,9.40
2017-09-22T23:43:02.661Z,9.40
2017-09-22T23:45:31.033Z,9.40
2017-09-22T23:47:59.432Z,9.30
2017-09-22T23:50:27.015Z,9.30
2017-09-22T23:52:54.589Z,9.30
2017-09-22T23:55:22.248Z,9.30
2017-09-22T23:57:50.860Z,9.20
